Airfield :
LOGIN :

Register | Disclaimer

   EN    FR    IT 

 










Legend :    VFR   Marginal VFR   IFR   Intensive IFR   Very Intensive IFR
Visi :
Ceiling :
>= 8 km
>= 3000ft
5 to 8 km
1000 to 3000 ft
1500m to 5 km
500 to 1000 ft
800 to 1500m
200 to 500 ft
< 800m
< 200 ft
Symbols :   Thunderstorms  Fog  Heavy snow  Heavy precipitations  Wind > 20 kt
SIGMETs :     Misc.  Thunderstorms  Icing  Turbulence  Mountain Waves  Volcanic Ashes







- Airport Elevation : 82 ft
- IATA code : QIE
- Download approach charts


LFMI - Istres

CURRENT METAR :
  • 260900Z AUTO 32025KT CAVOK 20/09 Q1015 BECMG 32020G30KT

EXPIRED METARs :
  • 260830Z AUTO 32024KT CAVOK 19/09 Q1015 BECMG 32020G30KT
  • 260800Z AUTO 32022KT CAVOK 19/09 Q1015 BECMG 32021G31KT
  • 260730Z AUTO 33022KT CAVOK 18/09 Q1015 BECMG 32021G31KT
  • 260700Z AUTO 32023KT CAVOK 18/10 Q1015 BECMG 32021G31KT
  • 260630Z AUTO 32021KT CAVOK 17/10 Q1015 BECMG 32021G31KT

TAF TAF LFMI
Valid from the 26 at 09:00 until the 27 at 09:00 UTC


260800Z 2609/2709 32020G30KT CAVOK
BECMG 2621/2623 VRB05KT
No reported NOTAMs for that airfield.



MET'MAP, your aeronautical weather chart ! - Copyright ORBIFLY December 2007 - Disclaimer

ORBIFLY MET'MAP TEAM :

Programming & Development : Alexandra Zaïnal
Concept & Development : Baudouin d'Aumeries
Co-Development & Prog : Marc-Olivier Méhu
Technical & hardware support : Manuel Goepfert

Contact : metmap@orbifly.com




SOURCES & CREDITS :

   NOAA